Terminal Aerodrome Forecast
Issued by NWS

Home | Current Version | Previous Version | Text Only | Print | Product List | Glossary On
Versions: 1 2 3 4 5 6 7 8 9 10 11 12 13 14
000
FTUS44 KLIX 300520
TAFMSY
TAF
KMSY 300520Z 3006/3106 12004KT P6SM FEW010 FEW100 BKN250
     FM301100 00000KT P6SM SCT200
     FM301500 VRB03KT P6SM BKN150 PROB30 3018/3023 VRB15KT 2SM TSRA
      BR BKN025CB
     FM302300 18004KT P6SM FEW025 BKN110
     FM310500 21006KT P6SM SCT120=

USA.gov is the U.S. government's official web portal to all federal, state and local government web resources and services.